Time,TemperatureF,DewpointF,PressureIn,WindDirection,WindDirectionDegrees,WindSpeedMPH,WindSpeedGustMPH,Humidity,HourlyPrecipIn,Conditions,Clouds,dailyrainin,SoftwareType,DateUTC
2013-02-04 00:00:00,49.1,45.7,29.47,SSE,147,1.0,1.0,88,0.00,,,0.00,Wunderground v.1.15,2013-02-04 00:00:00,
2013-02-04 00:10:00,49.1,45.4,29.47,West,263,1.0,7.0,87,0.00,,,0.00,Wunderground v.1.15,2013-02-04 00:10:00,
2013-02-04 00:15:00,48.9,45.2,29.47,NNW,347,2.0,7.0,87,0.00,,,0.00,Wunderground v.1.15,2013-02-04 00:15:00,
2013-02-04 00:20:00,48.9,45.2,29.47,WNW,291,2.0,2.0,87,0.00,,,0.00,Wunderground v.1.15,2013-02-04 00:20:00,
2013-02-04 00:25:00,48.8,45.1,29.47,NNW,329,2.0,9.0,87,0.00,,,0.00,Wunderground v.1.15,2013-02-04 00:25:00,
2013-02-04 00:30:00,48.8,45.1,29.46,NW,304,2.0,9.0,87,0.00,,,0.00,Wunderground v.1.15,2013-02-04 00:30:00,
2013-02-04 00:35:00,48.6,44.9,29.46,NNW,329,2.0,9.0,87,0.00,,,0.00,Wunderground v.1.15,2013-02-04 00:35:00,
2013-02-04 00:40:00,48.6,44.9,29.46,WNW,287,1.0,9.0,87,0.00,,,0.00,Wunderground v.1.15,2013-02-04 00:40:00,
2013-02-04 00:50:00,48.5,44.8,29.46,WNW,288,2.0,8.0,87,0.00,,,0.00,Wunderground v.1.15,2013-02-04 00:50:00,
2013-02-04 00:55:00,48.3,44.6,29.46,West,275,2.0,8.0,87,0.00,,,0.00,Wunderground v.1.15,2013-02-04 00:55:00,
2013-02-04 01:00:00,48.3,44.9,29.45,West,272,1.0,1.0,88,0.00,,,0.00,Wunderground v.1.15,2013-02-04 01:00:00,
2013-02-04 01:05:00,48.3,44.9,29.45,WNW,289,1.0,8.0,88,0.00,,,0.00,Wunderground v.1.15,2013-02-04 01:05:00,
2013-02-04 01:15:00,48.3,44.9,29.45,SSE,157,1.0,8.0,88,0.00,,,0.00,Wunderground v.1.15,2013-02-04 01:15:00,
2013-02-04 01:20:00,48.3,44.9,29.45,WNW,291,1.0,8.0,88,0.00,,,0.00,Wunderground v.1.15,2013-02-04 01:20:00,
2013-02-04 01:25:00,48.2,44.8,29.45,WSW,251,1.0,8.0,88,0.00,,,0.00,Wunderground v.1.15,2013-02-04 01:25:00,
2013-02-04 01:30:00,48.2,44.5,29.45,WNW,282,1.0,1.0,87,0.00,,,0.00,Wunderground v.1.15,2013-02-04 01:30:00,
2013-02-04 01:35:00,48.2,44.5,29.45,NW,320,1.0,8.0,87,0.00,,,0.00,Wunderground v.1.15,2013-02-04 01:35:00,
2013-02-04 01:45:00,48.0,44.3,29.45,WNW,291,1.0,8.0,87,0.00,,,0.00,Wunderground v.1.15,2013-02-04 01:45:00,
2013-02-04 01:50:00,47.9,44.2,29.45,West,281,1.0,8.0,87,0.00,,,0.00,Wunderground v.1.15,2013-02-04 01:50:00,
2013-02-04 01:55:00,47.9,44.2,29.45,West,278,1.0,8.0,87,0.00,,,0.00,Wunderground v.1.15,2013-02-04 01:55:00,
2013-02-04 02:05:00,47.9,44.2,29.44,North,354,1.0,8.0,87,0.00,,,0.00,Wunderground v.1.15,2013-02-04 02:05:00,
2013-02-04 02:10:00,47.7,43.7,29.44,North,353,0.0,8.0,86,0.00,,,0.00,Wunderground v.1.15,2013-02-04 02:10:00,
2013-02-04 02:15:00,47.7,43.7,29.44,West,277,1.0,8.0,86,0.00,,,0.00,Wunderground v.1.15,2013-02-04 02:15:00,
2013-02-04 02:20:00,47.7,43.7,29.44,WSW,248,1.0,1.0,86,0.00,,,0.00,Wunderground v.1.15,2013-02-04 02:20:00,
2013-02-04 02:30:00,47.7,43.7,29.43,WNW,288,2.0,2.0,86,0.00,,,0.00,Wunderground v.1.15,2013-02-04 02:30:00,
2013-02-04 02:35:00,47.7,43.7,29.43,WNW,294,2.0,8.0,86,0.00,,,0.00,Wunderground v.1.15,2013-02-04 02:35:00,
2013-02-04 02:40:00,47.7,43.4,29.43,WNW,298,1.0,1.0,85,0.00,,,0.00,Wunderground v.1.15,2013-02-04 02:40:00,
2013-02-04 02:50:00,47.7,43.7,29.43,West,277,0.0,11.0,86,0.00,,,0.00,Wunderground v.1.15,2013-02-04 02:50:00,
2013-02-04 02:55:00,47.9,43.9,29.43,West,270,1.0,11.0,86,0.00,,,0.00,Wunderground v.1.15,2013-02-04 02:55:00,
2013-02-04 03:00:00,48.0,44.0,29.43,NNW,329,1.0,11.0,86,0.00,,,0.00,Wunderground v.1.15,2013-02-04 03:00:00,
2013-02-04 03:05:00,48.2,44.2,29.43,NW,308,3.0,11.0,86,0.00,,,0.00,Wunderground v.1.15,2013-02-04 03:05:00,
2013-02-04 03:10:00,48.3,44.3,29.43,NW,320,3.0,3.0,86,0.00,,,0.00,Wunderground v.1.15,2013-02-04 03:10:00,
2013-02-04 03:20:00,48.5,44.2,29.42,North,354,3.0,9.0,85,0.00,,,0.00,Wunderground v.1.15,2013-02-04 03:20:00,
2013-02-04 03:25:00,48.8,44.5,29.42,NNE,23,3.0,9.0,85,0.00,,,0.00,Wunderground v.1.15,2013-02-04 03:25:00,
2013-02-04 03:30:00,48.9,44.6,29.42,WNW,294,3.0,3.0,85,0.00,,,0.00,Wunderground v.1.15,2013-02-04 03:30:00,
2013-02-04 03:35:00,49.1,44.5,29.42,NW,322,3.0,9.0,84,0.00,,,0.00,Wunderground v.1.15,2013-02-04 03:35:00,
2013-02-04 03:40:00,49.2,44.6,29.42,North,0,3.0,9.0,84,0.00,,,0.00,Wunderground v.1.15,2013-02-04 03:40:00,
2013-02-04 03:45:00,49.2,44.6,29.42,WNW,285,3.0,9.0,84,0.00,,,0.00,Wunderground v.1.15,2013-02-04 03:45:00,
2013-02-04 03:55:00,49.5,44.6,29.42,NW,316,4.0,4.0,83,0.00,,,0.00,Wunderground v.1.15,2013-02-04 03:55:00,
2013-02-04 04:00:00,49.6,44.6,29.42,WNW,294,3.0,13.0,83,0.00,,,0.00,Wunderground v.1.15,2013-02-04 04:00:00,
2013-02-04 04:05:00,49.6,44.6,29.42,North,353,3.0,13.0,83,0.00,,,0.00,Wunderground v.1.15,2013-02-04 04:05:00,
2013-02-04 04:10:00,49.8,44.8,29.42,SSE,160,3.0,3.0,83,0.00,,,0.00,Wunderground v.1.15,2013-02-04 04:10:00,
2013-02-04 04:20:00,50.1,45.1,29.42,WNW,292,5.0,5.0,83,0.00,,,0.00,Wunderground v.1.15,2013-02-04 04:20:00,
2013-02-04 04:25:00,50.1,45.1,29.42,West,263,5.0,10.0,83,0.00,,,0.00,Wunderground v.1.15,2013-02-04 04:25:00,
2013-02-04 04:30:00,50.2,45.2,29.42,NW,313,3.0,3.0,83,0.00,,,0.00,Wunderground v.1.15,2013-02-04 04:30:00,
2013-02-04 04:35:00,50.2,45.2,29.42,NNW,337,3.0,10.0,83,0.00,,,0.00,Wunderground v.1.15,2013-02-04 04:35:00,
2013-02-04 04:45:00,50.4,45.4,29.42,NNW,344,5.0,5.0,83,0.00,,,0.00,Wunderground v.1.15,2013-02-04 04:45:00,
2013-02-04 04:50:00,50.5,45.5,29.42,NW,318,5.0,15.0,83,0.00,,,0.00,Wunderground v.1.15,2013-02-04 04:50:00,
2013-02-04 04:55:00,50.5,45.5,29.42,North,354,4.0,16.0,83,0.00,,,0.00,Wunderground v.1.15,2013-02-04 04:55:00,
2013-02-04 05:05:00,50.5,45.8,29.43,North,0,4.0,15.0,84,0.00,,,0.00,Wunderground v.1.15,2013-02-04 05:05:00,
2013-02-04 05:15:00,50.7,46.0,29.43,West,280,3.0,15.0,84,0.00,,,0.00,Wunderground v.1.15,2013-02-04 05:15:00,
2013-02-04 05:20:00,50.5,46.2,29.43,WNW,284,3.0,3.0,85,0.00,,,0.00,Wunderground v.1.15,2013-02-04 05:20:00,
2013-02-04 05:25:00,50.5,46.5,29.43,North,1,3.0,6.0,86,0.00,,,0.00,Wunderground v.1.15,2013-02-04 05:25:00,
2013-02-04 05:35:00,50.4,46.4,29.43,WNW,282,3.0,6.0,86,0.00,,,0.00,Wunderground v.1.15,2013-02-04 05:35:00,
2013-02-04 05:40:00,50.2,46.2,29.43,WNW,282,2.0,16.0,86,0.00,,,0.00,Wunderground v.1.15,2013-02-04 05:40:00,
2013-02-04 05:45:00,50.2,46.2,29.42,West,277,2.0,16.0,86,0.00,,,0.00,Wunderground v.1.15,2013-02-04 05:45:00,
2013-02-04 05:50:00,50.1,46.1,29.42,West,278,2.0,2.0,86,0.00,,,0.00,Wunderground v.1.15,2013-02-04 05:50:00,
2013-02-04 06:00:00,49.9,45.9,29.42,SSE,154,2.0,11.0,86,0.00,,,0.00,Wunderground v.1.15,2013-02-04 06:00:00,
2013-02-04 06:05:00,49.9,45.9,29.42,NW,313,3.0,11.0,86,0.00,,,0.00,Wunderground v.1.15,2013-02-04 06:05:00,
2013-02-04 06:10:00,49.9,45.9,29.42,WNW,299,2.0,11.0,86,0.00,,,0.00,Wunderground v.1.15,2013-02-04 06:10:00,
2013-02-04 06:20:00,49.9,45.9,29.42,SE,140,1.0,1.0,86,0.00,,,0.00,Wunderground v.1.15,2013-02-04 06:20:00,
2013-02-04 06:25:00,49.9,45.9,29.42,West,260,0.0,10.0,86,0.00,,,0.00,Wunderground v.1.15,2013-02-04 06:25:00,
2013-02-04 06:30:00,49.9,45.9,29.42,NW,320,0.0,10.0,86,0.00,,,0.00,Wunderground v.1.15,2013-02-04 06:30:00,
2013-02-04 06:35:00,49.9,45.9,29.42,NNW,328,1.0,10.0,86,0.00,,,0.00,Wunderground v.1.15,2013-02-04 06:35:00,
2013-02-04 06:45:00,49.9,45.9,29.42,SE,126,2.0,10.0,86,0.00,,,0.00,Wunderground v.1.15,2013-02-04 06:45:00,
2013-02-04 06:50:00,49.9,45.9,29.42,WSW,250,1.0,1.0,86,0.00,,,0.00,Wunderground v.1.15,2013-02-04 06:50:00,
2013-02-04 06:55:00,49.9,45.9,29.42,North,356,1.0,11.0,86,0.00,,,0.00,Wunderground v.1.15,2013-02-04 06:55:00,
2013-02-04 07:00:00,49.9,45.6,29.43,West,270,1.0,1.0,85,0.00,,,0.00,Wunderground v.1.15,2013-02-04 07:00:00,
2013-02-04 07:05:00,49.9,45.6,29.43,SE,127,1.0,11.0,85,0.00,,,0.00,Wunderground v.1.15,2013-02-04 07:05:00,
2013-02-04 07:15:00,49.9,45.3,29.43,WNW,294,1.0,11.0,84,0.00,,,0.00,Wunderground v.1.15,2013-02-04 07:15:00,
2013-02-04 07:20:00,49.9,45.3,29.43,WNW,289,1.0,8.0,84,0.00,,,0.00,Wunderground v.1.15,2013-02-04 07:20:00,
2013-02-04 07:30:00,49.9,45.3,29.44,West,277,1.0,1.0,84,0.00,,,0.00,Wunderground v.1.15,2013-02-04 07:30:00,
2013-02-04 07:35:00,49.9,44.9,29.44,NW,320,1.0,4.0,83,0.00,,,0.00,Wunderground v.1.15,2013-02-04 07:35:00,
2013-02-04 07:40:00,49.9,44.9,29.44,WNW,296,1.0,8.0,83,0.00,,,0.00,Wunderground v.1.15,2013-02-04 07:40:00,
2013-02-04 07:45:00,49.9,44.9,29.44,WNW,299,2.0,8.0,83,0.00,,,0.00,Wunderground v.1.15,2013-02-04 07:45:00,
2013-02-04 07:50:00,49.9,44.6,29.44,WNW,294,1.0,1.0,82,0.00,,,0.00,Wunderground v.1.15,2013-02-04 07:50:00,
2013-02-04 07:55:00,49.8,44.5,29.44,WNW,295,1.0,2.0,82,0.00,,,0.00,Wunderground v.1.15,2013-02-04 07:55:00,
2013-02-04 08:05:00,49.9,44.3,29.45,WNW,302,3.0,7.0,81,0.00,,,0.00,Wunderground v.1.15,2013-02-04 08:05:00,
2013-02-04 08:10:00,49.9,44.3,29.45,NNW,346,2.0,7.0,81,0.00,,,0.00,Wunderground v.1.15,2013-02-04 08:10:00,
2013-02-04 08:15:00,49.8,43.9,29.46,NW,325,4.0,7.0,80,0.00,,,0.00,Wunderground v.1.15,2013-02-04 08:15:00,
2013-02-04 08:20:00,49.4,42.1,29.46,North,354,5.0,10.0,76,0.00,,,0.00,Wunderground v.1.15,2013-02-04 08:20:00,
2013-02-04 08:25:00,49.2,41.3,29.46,NNW,330,6.0,10.0,74,0.00,,,0.00,Wunderground v.1.15,2013-02-04 08:25:00,
2013-02-04 08:35:00,49.1,40.8,29.47,North,0,4.0,10.0,73,0.00,,,0.00,Wunderground v.1.15,2013-02-04 08:35:00,
2013-02-04 08:40:00,48.9,40.6,29.47,North,353,4.0,10.0,73,0.00,,,0.00,Wunderground v.1.15,2013-02-04 08:40:00,
2013-02-04 08:45:00,48.6,40.0,29.48,NW,325,5.0,10.0,72,0.00,,,0.00,Wunderground v.1.15,2013-02-04 08:45:00,
2013-02-04 08:50:00,48.3,38.6,29.48,North,1,6.0,6.0,69,0.00,,,0.00,Wunderground v.1.15,2013-02-04 08:50:00,
2013-02-04 09:00:00,48.2,37.4,29.49,North,4,5.0,5.0,66,0.00,,,0.00,Wunderground v.1.15,2013-02-04 09:00:00,
2013-02-04 09:05:00,48.0,36.4,29.49,NW,315,5.0,15.0,64,0.00,,,0.00,Wunderground v.1.15,2013-02-04 09:05:00,
2013-02-04 09:10:00,48.0,35.6,29.49,North,350,6.0,6.0,62,0.00,,,0.00,Wunderground v.1.15,2013-02-04 09:10:00,
2013-02-04 09:15:00,48.0,35.2,29.49,NNW,337,4.0,15.0,61,0.00,,,0.00,Wunderground v.1.15,2013-02-04 09:15:00,
2013-02-04 09:20:00,47.9,34.3,29.49,NNW,340,4.0,14.0,59,0.00,,,0.00,Wunderground v.1.15,2013-02-04 09:20:00,
2013-02-04 09:30:00,48.2,34.5,29.49,NNW,330,5.0,14.0,59,0.00,,,0.00,Wunderground v.1.15,2013-02-04 09:30:00,
2013-02-04 09:35:00,48.2,34.5,29.49,NNW,346,5.0,14.0,59,0.00,,,0.00,Wunderground v.1.15,2013-02-04 09:35:00,
2013-02-04 09:40:00,48.5,34.8,29.49,NNW,328,5.0,5.0,59,0.00,,,0.00,Wunderground v.1.15,2013-02-04 09:40:00,
2013-02-04 09:45:00,48.6,34.9,29.50,SW,226,5.0,14.0,59,0.00,,,0.00,Wunderground v.1.15,2013-02-04 09:45:00,
2013-02-04 09:55:00,48.8,34.7,29.50,NNW,336,5.0,14.0,58,0.00,,,0.00,Wunderground v.1.15,2013-02-04 09:55:00,
2013-02-04 10:00:00,48.9,34.3,29.50,North,359,5.0,5.0,57,0.00,,,0.00,Wunderground v.1.15,2013-02-04 10:00:00,
2013-02-04 10:05:00,48.9,33.9,29.50,North,0,6.0,6.0,56,0.00,,,0.00,Wunderground v.1.15,2013-02-04 10:05:00,
2013-02-04 10:10:00,49.1,33.6,29.50,NNW,328,5.0,14.0,55,0.00,,,0.00,Wunderground v.1.15,2013-02-04 10:10:00,
2013-02-04 10:15:00,49.2,33.3,29.50,NNW,332,5.0,14.0,54,0.00,,,0.00,Wunderground v.1.15,2013-02-04 10:15:00,
2013-02-04 10:25:00,49.8,32.9,29.50,North,352,4.0,13.0,52,0.00,,,0.00,Wunderground v.1.15,2013-02-04 10:25:00,
2013-02-04 10:30:00,50.1,33.1,29.51,NW,309,4.0,13.0,52,0.00,,,0.00,Wunderground v.1.15,2013-02-04 10:30:00,
2013-02-04 10:35:00,50.4,33.4,29.51,NNE,23,4.0,13.0,52,0.00,,,0.00,Wunderground v.1.15,2013-02-04 10:35:00,
2013-02-04 10:40:00,50.7,33.7,29.51,West,271,4.0,13.0,52,0.00,,,0.00,Wunderground v.1.15,2013-02-04 10:40:00,
2013-02-04 10:45:00,50.8,33.8,29.50,North,359,4.0,13.0,52,0.00,,,0.00,Wunderground v.1.15,2013-02-04 10:45:00,
2013-02-04 10:50:00,50.8,34.3,29.50,NW,308,4.0,13.0,53,0.00,,,0.00,Wunderground v.1.15,2013-02-04 10:50:00,
2013-02-04 11:00:00,50.7,34.6,29.50,North,352,4.0,13.0,54,0.00,,,0.00,Wunderground v.1.15,2013-02-04 11:00:00,
2013-02-04 11:05:00,50.5,34.5,29.50,NW,318,5.0,13.0,54,0.00,,,0.00,Wunderground v.1.15,2013-02-04 11:05:00,
2013-02-04 11:10:00,50.5,34.5,29.50,NNW,339,6.0,13.0,54,0.00,,,0.00,Wunderground v.1.15,2013-02-04 11:10:00,
2013-02-04 11:15:00,50.7,35.1,29.51,NE,37,6.0,13.0,55,0.00,,,0.00,Wunderground v.1.15,2013-02-04 11:15:00,
2013-02-04 11:20:00,50.8,35.2,29.51,NNW,346,6.0,15.0,55,0.00,,,0.00,Wunderground v.1.15,2013-02-04 11:20:00,
2013-02-04 11:25:00,51.1,35.5,29.51,NW,304,6.0,15.0,55,0.00,,,0.00,Wunderground v.1.15,2013-02-04 11:25:00,
2013-02-04 11:35:00,51.3,36.1,29.51,NNW,340,7.0,15.0,56,0.00,,,0.00,Wunderground v.1.15,2013-02-04 11:35:00,
2013-02-04 11:40:00,51.1,35.5,29.51,NW,305,7.0,7.0,55,0.00,,,0.00,Wunderground v.1.15,2013-02-04 11:40:00,
2013-02-04 11:45:00,50.8,35.2,29.51,North,0,8.0,8.0,55,0.00,,,0.00,Wunderground v.1.15,2013-02-04 11:45:00,
2013-02-04 11:55:00,51.3,35.7,29.51,North,350,5.0,22.0,55,0.00,,,0.00,Wunderground v.1.15,2013-02-04 11:55:00,
2013-02-04 12:00:00,51.3,35.7,29.49,WSW,247,6.0,22.0,55,0.00,,,0.00,Wunderground v.1.15,2013-02-04 12:00:00,
2013-02-04 12:05:00,51.3,34.7,29.49,NNW,346,7.0,22.0,53,0.00,,,0.00,Wunderground v.1.15,2013-02-04 12:05:00,
2013-02-04 12:10:00,51.4,34.8,29.49,WNW,299,7.0,22.0,53,0.00,,,0.00,Wunderground v.1.15,2013-02-04 12:10:00,
2013-02-04 12:20:00,51.1,34.1,29.51,NW,325,5.0,5.0,52,0.00,,,0.00,Wunderground v.1.15,2013-02-04 12:20:00,
2013-02-04 12:25:00,50.8,33.3,29.51,West,280,5.0,8.0,51,0.00,,,0.00,Wunderground v.1.15,2013-02-04 12:25:00,
2013-02-04 12:30:00,50.5,33.0,29.50,North,0,6.0,20.0,51,0.00,,,0.00,Wunderground v.1.15,2013-02-04 12:30:00,
2013-02-04 12:35:00,50.4,32.9,29.50,NNW,342,6.0,20.0,51,0.00,,,0.00,Wunderground v.1.15,2013-02-04 12:35:00,
2013-02-04 12:40:00,50.2,33.2,29.50,NNW,333,5.0,20.0,52,0.00,,,0.00,Wunderground v.1.15,2013-02-04 12:40:00,
2013-02-04 12:50:00,50.5,34.0,29.49,NNW,328,5.0,5.0,53,0.00,,,0.00,Wunderground v.1.15,2013-02-04 12:50:00,
2013-02-04 12:55:00,50.5,34.5,29.49,North,11,5.0,9.0,54,0.00,,,0.00,Wunderground v.1.15,2013-02-04 12:55:00,
2013-02-04 13:00:00,50.4,34.4,29.49,North,359,6.0,6.0,54,0.00,,,0.00,Wunderground v.1.15,2013-02-04 13:00:00,
2013-02-04 13:05:00,50.5,34.9,29.49,NW,322,6.0,16.0,55,0.00,,,0.00,Wunderground v.1.15,2013-02-04 13:05:00,
2013-02-04 13:10:00,50.8,34.7,29.49,NW,313,6.0,16.0,54,0.00,,,0.00,Wunderground v.1.15,2013-02-04 13:10:00,
2013-02-04 13:20:00,50.4,34.8,29.49,NNW,342,7.0,14.0,55,0.00,,,0.00,Wunderground v.1.15,2013-02-04 13:20:00,
2013-02-04 13:25:00,50.5,35.4,29.49,NW,325,6.0,14.0,56,0.00,,,0.00,Wunderground v.1.15,2013-02-04 13:25:00,
2013-02-04 13:30:00,50.7,35.1,29.49,WNW,302,5.0,14.0,55,0.00,,,0.00,Wunderground v.1.15,2013-02-04 13:30:00,
2013-02-04 13:40:00,51.1,35.5,29.49,NNW,344,6.0,6.0,55,0.00,,,0.00,Wunderground v.1.15,2013-02-04 13:40:00,
2013-02-04 13:45:00,51.4,34.8,29.49,WNW,291,6.0,14.0,53,0.00,,,0.00,Wunderground v.1.15,2013-02-04 13:45:00,
2013-02-04 13:50:00,51.4,34.3,29.49,North,0,6.0,17.0,52,0.00,,,0.00,Wunderground v.1.15,2013-02-04 13:50:00,
2013-02-04 13:55:00,51.1,33.6,29.49,North,354,6.0,17.0,51,0.00,,,0.00,Wunderground v.1.15,2013-02-04 13:55:00,
2013-02-04 14:05:00,51.1,34.1,29.49,NW,309,5.0,17.0,52,0.00,,,0.00,Wunderground v.1.15,2013-02-04 14:05:00,
2013-02-04 14:10:00,51.0,33.5,29.49,North,353,4.0,4.0,51,0.00,,,0.00,Wunderground v.1.15,2013-02-04 14:10:00,
2013-02-04 14:15:00,50.7,33.2,29.48,NNW,330,4.0,17.0,51,0.00,,,0.00,Wunderground v.1.15,2013-02-04 14:15:00,
2013-02-04 14:20:00,50.4,33.4,29.48,North,357,5.0,5.0,52,0.00,,,0.00,Wunderground v.1.15,2013-02-04 14:20:00,
2013-02-04 14:30:00,49.9,33.0,29.48,North,354,7.0,17.0,52,0.00,,,0.00,Wunderground v.1.15,2013-02-04 14:30:00,
2013-02-04 14:35:00,49.8,32.9,29.48,WNW,302,7.0,17.0,52,0.00,,,0.00,Wunderground v.1.15,2013-02-04 14:35:00,
2013-02-04 14:40:00,49.6,32.7,29.48,NNW,342,7.0,17.0,52,0.00,,,0.00,Wunderground v.1.15,2013-02-04 14:40:00,
2013-02-04 14:45:00,49.5,33.1,29.48,West,260,6.0,17.0,53,0.00,,,0.00,Wunderground v.1.15,2013-02-04 14:45:00,
2013-02-04 14:50:00,49.5,33.1,29.48,NNW,333,6.0,6.0,53,0.00,,,0.00,Wunderground v.1.15,2013-02-04 14:50:00,
2013-02-04 15:00:00,49.5,33.1,29.47,NW,315,5.0,5.0,53,0.00,,,0.00,Wunderground v.1.15,2013-02-04 15:00:00,
2013-02-04 15:05:00,49.2,32.8,29.47,WNW,285,5.0,24.0,53,0.00,,,0.00,Wunderground v.1.15,2013-02-04 15:05:00,
2013-02-04 15:10:00,49.1,33.2,29.47,NW,325,4.0,24.0,54,0.00,,,0.00,Wunderground v.1.15,2013-02-04 15:10:00,
2013-02-04 15:15:00,49.1,33.2,29.48,North,352,4.0,24.0,54,0.00,,,0.00,Wunderground v.1.15,2013-02-04 15:15:00,
2013-02-04 15:20:00,49.1,33.2,29.48,NNW,336,4.0,4.0,54,0.00,,,0.00,Wunderground v.1.15,2013-02-04 15:20:00,
2013-02-04 15:25:00,49.1,33.6,29.48,WNW,302,4.0,7.0,55,0.00,,,0.00,Wunderground v.1.15,2013-02-04 15:25:00,
2013-02-04 15:30:00,49.1,33.2,29.47,NW,325,4.0,18.0,54,0.00,,,0.00,Wunderground v.1.15,2013-02-04 15:30:00,
2013-02-04 15:35:00,49.1,33.6,29.47,NNW,343,4.0,18.0,55,0.00,,,0.00,Wunderground v.1.15,2013-02-04 15:35:00,
2013-02-04 15:45:00,49.1,32.7,29.47,NNW,336,4.0,13.0,53,0.00,,,0.00,Wunderground v.1.15,2013-02-04 15:45:00,
2013-02-04 15:50:00,48.9,32.0,29.47,SW,233,6.0,17.0,52,0.00,,,0.00,Wunderground v.1.15,2013-02-04 15:50:00,
2013-02-04 15:55:00,48.6,31.3,29.47,NNW,333,7.0,17.0,51,0.00,,,0.00,Wunderground v.1.15,2013-02-04 15:55:00,
2013-02-04 16:00:00,48.5,31.7,29.47,NW,313,7.0,7.0,52,0.00,,,0.00,Wunderground v.1.15,2013-02-04 16:00:00,
2013-02-04 16:10:00,48.3,31.9,29.47,NNW,335,5.0,17.0,53,0.00,,,0.00,Wunderground v.1.15,2013-02-04 16:10:00,
2013-02-04 16:15:00,48.3,32.4,29.47,NNE,18,5.0,17.0,54,0.00,,,0.00,Wunderground v.1.15,2013-02-04 16:15:00,
2013-02-04 16:20:00,48.3,32.9,29.47,West,265,4.0,14.0,55,0.00,,,0.00,Wunderground v.1.15,2013-02-04 16:20:00,
2013-02-04 16:25:00,48.3,33.8,29.47,West,281,4.0,14.0,57,0.00,,,0.00,Wunderground v.1.15,2013-02-04 16:25:00,
2013-02-04 16:35:00,48.0,35.2,29.47,NW,323,4.0,14.0,61,0.00,,,0.00,Wunderground v.1.15,2013-02-04 16:35:00,
2013-02-04 16:40:00,47.9,35.1,29.47,NW,308,5.0,5.0,61,0.00,,,0.00,Wunderground v.1.15,2013-02-04 16:40:00,
2013-02-04 16:45:00,47.7,35.3,29.47,North,0,4.0,14.0,62,0.00,,,0.00,Wunderground v.1.15,2013-02-04 16:45:00,
2013-02-04 16:50:00,47.6,35.2,29.47,WNW,302,4.0,4.0,62,0.00,,,0.00,Wunderground v.1.15,2013-02-04 16:50:00,
2013-02-04 16:55:00,47.4,35.4,29.47,West,280,3.0,14.0,63,0.00,,,0.00,Wunderground v.1.15,2013-02-04 16:55:00,
2013-02-04 17:05:00,47.0,35.0,29.47,NNW,330,4.0,14.0,63,0.00,,,0.00,Wunderground v.1.15,2013-02-04 17:05:00,
2013-02-04 17:10:00,46.8,34.9,29.47,WNW,289,4.0,14.0,63,0.00,,,0.00,Wunderground v.1.15,2013-02-04 17:10:00,
2013-02-04 17:15:00,46.5,35.0,29.47,WNW,284,4.0,14.0,64,0.00,,,0.00,Wunderground v.1.15,2013-02-04 17:15:00,
2013-02-04 17:20:00,46.2,34.7,29.47,NNW,328,5.0,5.0,64,0.00,,,0.00,Wunderground v.1.15,2013-02-04 17:20:00,
2013-02-04 17:25:00,46.2,34.7,29.47,North,349,4.0,6.0,64,0.00,,,0.00,Wunderground v.1.15,2013-02-04 17:25:00,
2013-02-04 17:35:00,46.0,34.9,29.47,WNW,294,4.0,16.0,65,0.00,,,0.00,Wunderground v.1.15,2013-02-04 17:35:00,
2013-02-04 17:40:00,45.8,34.7,29.47,NNE,27,4.0,16.0,65,0.00,,,0.00,Wunderground v.1.15,2013-02-04 17:40:00,
2013-02-04 17:45:00,45.8,34.7,29.46,NNW,336,3.0,16.0,65,0.00,,,0.00,Wunderground v.1.15,2013-02-04 17:45:00,
2013-02-04 17:50:00,45.7,34.6,29.46,WNW,285,3.0,3.0,65,0.00,,,0.00,Wunderground v.1.15,2013-02-04 17:50:00,
2013-02-04 18:00:00,45.4,34.7,29.46,WSW,253,3.0,13.0,66,0.00,,,0.00,Wunderground v.1.15,2013-02-04 18:00:00,
2013-02-04 18:05:00,45.4,34.7,29.46,NW,316,3.0,13.0,66,0.00,,,0.00,Wunderground v.1.15,2013-02-04 18:05:00,
2013-02-04 18:10:00,45.2,34.9,29.46,North,0,4.0,4.0,67,0.00,,,0.00,Wunderground v.1.15,2013-02-04 18:10:00,
2013-02-04 18:15:00,45.1,34.8,29.45,WNW,294,4.0,6.0,67,0.00,,,0.00,Wunderground v.1.15,2013-02-04 18:15:00,
2013-02-04 18:20:00,45.1,35.2,29.45,SSW,209,4.0,4.0,68,0.00,,,0.00,Wunderground v.1.15,2013-02-04 18:20:00,
2013-02-04 18:30:00,44.9,35.0,29.45,WNW,282,5.0,14.0,68,0.00,,,0.00,Wunderground v.1.15,2013-02-04 18:30:00,
2013-02-04 18:35:00,44.9,35.3,29.45,NNW,344,4.0,14.0,69,0.00,,,0.00,Wunderground v.1.15,2013-02-04 18:35:00,
2013-02-04 18:40:00,44.8,35.2,29.45,North,354,4.0,14.0,69,0.00,,,0.00,Wunderground v.1.15,2013-02-04 18:40:00,
2013-02-04 18:45:00,44.6,35.1,29.44,North,357,3.0,14.0,69,0.00,,,0.00,Wunderground v.1.15,2013-02-04 18:45:00,
2013-02-04 18:50:00,44.6,35.1,29.44,West,270,4.0,10.0,69,0.00,,,0.00,Wunderground v.1.15,2013-02-04 18:50:00,
2013-02-04 19:00:00,44.5,35.0,29.43,NW,304,4.0,4.0,69,0.00,,,0.00,Wunderground v.1.15,2013-02-04 19:00:00,
2013-02-04 19:05:00,44.3,34.8,29.43,NW,316,5.0,6.0,69,0.00,,,0.00,Wunderground v.1.15,2013-02-04 19:05:00,
2013-02-04 19:10:00,44.3,34.8,29.43,NNW,336,4.0,10.0,69,0.00,,,0.00,Wunderground v.1.15,2013-02-04 19:10:00,
2013-02-04 19:15:00,44.3,34.8,29.43,NW,326,4.0,10.0,69,0.00,,,0.00,Wunderground v.1.15,2013-02-04 19:15:00,
2013-02-04 19:20:00,44.2,34.7,29.43,NW,306,4.0,4.0,69,0.00,,,0.00,Wunderground v.1.15,2013-02-04 19:20:00,
2013-02-04 19:30:00,44.2,34.7,29.42,NNW,332,3.0,3.0,69,0.00,,,0.00,Wunderground v.1.15,2013-02-04 19:30:00,
2013-02-04 19:35:00,44.2,35.0,29.42,West,275,3.0,15.0,70,0.00,,,0.00,Wunderground v.1.15,2013-02-04 19:35:00,
2013-02-04 19:40:00,44.2,35.0,29.42,NW,309,3.0,15.0,70,0.00,,,0.00,Wunderground v.1.15,2013-02-04 19:40:00,
2013-02-04 19:45:00,44.2,35.0,29.42,NNW,347,3.0,15.0,70,0.00,,,0.00,Wunderground v.1.15,2013-02-04 19:45:00,
2013-02-04 19:55:00,44.1,34.9,29.42,NW,318,4.0,4.0,70,0.00,,,0.00,Wunderground v.1.15,2013-02-04 19:55:00,
2013-02-04 20:00:00,44.1,34.9,29.41,NNW,342,4.0,13.0,70,0.00,,,0.00,Wunderground v.1.15,2013-02-04 20:00:00,
2013-02-04 20:05:00,43.9,35.1,29.41,SE,141,3.0,13.0,71,0.00,,,0.00,Wunderground v.1.15,2013-02-04 20:05:00,
2013-02-04 20:10:00,43.9,35.1,29.41,North,1,3.0,3.0,71,0.00,,,0.00,Wunderground v.1.15,2013-02-04 20:10:00,
2013-02-04 20:20:00,43.8,35.4,29.41,SW,234,3.0,16.0,72,0.00,,,0.00,Wunderground v.1.15,2013-02-04 20:20:00,
2013-02-04 20:25:00,43.6,35.2,29.41,WNW,298,3.0,16.0,72,0.00,,,0.00,Wunderground v.1.15,2013-02-04 20:25:00,
2013-02-04 20:30:00,43.6,35.2,29.41,West,281,4.0,4.0,72,0.00,,,0.00,Wunderground v.1.15,2013-02-04 20:30:00,
2013-02-04 20:35:00,43.5,35.4,29.41,NNW,342,4.0,16.0,73,0.00,,,0.00,Wunderground v.1.15,2013-02-04 20:35:00,
2013-02-04 20:40:00,43.5,35.4,29.41,NNW,347,4.0,16.0,73,0.00,,,0.00,Wunderground v.1.15,2013-02-04 20:40:00,
2013-02-04 20:50:00,43.3,35.6,29.40,SW,223,3.0,14.0,74,0.00,,,0.00,Wunderground v.1.15,2013-02-04 20:50:00,
2013-02-04 20:55:00,43.3,35.6,29.40,West,271,3.0,14.0,74,0.00,,,0.00,Wunderground v.1.15,2013-02-04 20:55:00,
2013-02-04 21:00:00,43.3,35.9,29.39,North,0,3.0,3.0,75,0.00,,,0.00,Wunderground v.1.15,2013-02-04 21:00:00,
2013-02-04 21:05:00,43.3,35.9,29.39,NNW,328,3.0,14.0,75,0.00,,,0.00,Wunderground v.1.15,2013-02-04 21:05:00,
2013-02-04 21:10:00,43.3,35.9,29.39,South,181,4.0,4.0,75,0.00,,,0.00,Wunderground v.1.15,2013-02-04 21:10:00,
2013-02-04 21:15:00,43.3,35.9,29.39,NNW,332,3.0,14.0,75,0.00,,,0.00,Wunderground v.1.15,2013-02-04 21:15:00,
2013-02-04 21:25:00,43.2,35.8,29.39,NNW,335,2.0,13.0,75,0.00,,,0.00,Wunderground v.1.15,2013-02-04 21:25:00,
2013-02-04 21:30:00,43.2,35.8,29.38,WNW,292,2.0,13.0,75,0.00,,,0.00,Wunderground v.1.15,2013-02-04 21:30:00,
2013-02-04 21:35:00,43.1,35.7,29.38,West,280,2.0,13.0,75,0.00,,,0.00,Wunderground v.1.15,2013-02-04 21:35:00,
2013-02-04 21:45:00,42.9,35.9,29.37,SE,133,1.0,13.0,76,0.00,,,0.00,Wunderground v.1.15,2013-02-04 21:45:00,
2013-02-04 21:50:00,42.8,35.8,29.37,WNW,296,1.0,11.0,76,0.00,,,0.00,Wunderground v.1.15,2013-02-04 21:50:00,
2013-02-04 21:55:00,42.8,35.8,29.37,West,264,1.0,11.0,76,0.00,,,0.00,Wunderground v.1.15,2013-02-04 21:55:00,
2013-02-04 22:00:00,42.6,35.6,29.37,East,95,1.0,1.0,76,0.00,,,0.00,Wunderground v.1.15,2013-02-04 22:00:00,
2013-02-04 22:05:00,42.6,35.6,29.37,SE,127,1.0,11.0,76,0.00,,,0.00,Wunderground v.1.15,2013-02-04 22:05:00,
2013-02-04 22:15:00,42.8,36.1,29.35,West,264,2.0,11.0,77,0.00,,,0.00,Wunderground v.1.15,2013-02-04 22:15:00,
2013-02-04 22:20:00,42.8,36.1,29.35,SW,234,2.0,2.0,77,0.00,,,0.00,Wunderground v.1.15,2013-02-04 22:20:00,
2013-02-04 22:30:00,42.8,36.1,29.34,South,178,1.0,7.0,77,0.00,,,0.00,Wunderground v.1.15,2013-02-04 22:30:00,
2013-02-04 22:35:00,42.8,36.4,29.34,NNE,14,2.0,7.0,78,0.00,,,0.00,Wunderground v.1.15,2013-02-04 22:35:00,
2013-02-04 22:40:00,42.9,36.2,29.34,SSE,151,2.0,2.0,77,0.00,,,0.00,Wunderground v.1.15,2013-02-04 22:40:00,
2013-02-04 22:45:00,42.9,36.2,29.33,SE,138,1.0,7.0,77,0.00,,,0.00,Wunderground v.1.15,2013-02-04 22:45:00,
2013-02-04 22:50:00,43.1,36.4,29.33,North,352,1.0,9.0,77,0.00,,,0.00,Wunderground v.1.15,2013-02-04 22:50:00,
2013-02-04 22:55:00,43.1,36.4,29.33,SW,220,1.0,9.0,77,0.00,,,0.00,Wunderground v.1.15,2013-02-04 22:55:00,
2013-02-04 23:05:00,43.2,36.1,29.32,WNW,288,1.0,2.0,76,0.00,,,0.00,Wunderground v.1.15,2013-02-04 23:05:00,
2013-02-04 23:10:00,43.3,36.2,29.32,SSE,148,2.0,2.0,76,0.00,,,0.00,Wunderground v.1.15,2013-02-04 23:10:00,
2013-02-04 23:15:00,43.3,36.2,29.32,NW,304,2.0,9.0,76,0.00,,,0.00,Wunderground v.1.15,2013-02-04 23:15:00,
2013-02-04 23:20:00,43.5,36.4,29.32,West,263,2.0,9.0,76,0.00,,,0.00,Wunderground v.1.15,2013-02-04 23:20:00,
2013-02-04 23:25:00,43.6,36.5,29.32,West,274,4.0,9.0,76,0.00,,,0.00,Wunderground v.1.15,2013-02-04 23:25:00,
2013-02-04 23:30:00,43.6,37.2,29.31,WNW,299,5.0,5.0,78,0.00,,,0.00,Wunderground v.1.15,2013-02-04 23:30:00,
2013-02-04 23:40:00,43.2,37.8,29.31,WNW,292,4.0,4.0,81,0.00,,,0.01,Wunderground v.1.15,2013-02-04 23:40:00,
2013-02-04 23:45:00,42.9,37.8,29.29,NW,318,2.0,9.0,82,0.00,,,0.01,Wunderground v.1.15,2013-02-04 23:45:00,
2013-02-04 23:50:00,42.8,38.0,29.29,SSW,196,1.0,1.0,83,0.00,,,0.01,Wunderground v.1.15,2013-02-04 23:50:00,
2013-02-04 23:55:00,42.6,37.8,29.29,West,268,1.0,15.0,83,0.00,,,0.01,Wunderground v.1.15,2013-02-04 23:55:00,